Time;durP1;ratioP1;P1;durP2;ratioP2;P2;SDS_P1;SDS_P2;PMS_P1;PMS_P2;Temp;Humidity;BMP_temperature;BMP_pressure;BME280_temperature;BME280_humidity;BME280_pressure;Samples;Min_cycle;Max_cycle;Signal;HPM_P1;HPM_P2
2021/11/27 00:01:56;;;;;;;3.83;0.77;;;;;;;2.83;80.95;98510.28;5046062;28;20440;-67
2021/11/27 00:04:22;;;;;;;7.85;0.93;;;;;;;2.81;81.35;98513.88;5047783;28;20029;-67
2021/11/27 00:06:47;;;;;;;1.88;0.40;;;;;;;2.78;81.46;98513.09;5047493;28;20411;-69
2021/11/27 00:09:13;;;;;;;4.60;0.82;;;;;;;2.80;81.50;98514.78;5047194;28;20025;-68
2021/11/27 00:11:39;;;;;;;2.38;0.50;;;;;;;2.77;81.47;98511.38;5048335;28;20356;-68
2021/11/27 00:14:06;;;;;;;1.70;0.73;;;;;;;2.76;81.55;98509.69;5048993;28;20242;-70
2021/11/27 00:16:32;;;;;;;3.55;1.23;;;;;;;2.77;81.60;98513.16;5047219;28;20036;-68
2021/11/27 00:18:58;;;;;;;5.60;1.30;;;;;;;2.76;81.44;98514.03;5049182;28;20048;-67
2021/11/27 00:21:24;;;;;;;7.70;1.20;;;;;;;2.72;81.60;98505.53;5046736;28;20403;-69
2021/11/27 00:23:50;;;;;;;4.55;0.98;;;;;;;2.72;81.72;98508.13;5048355;28;20021;-68
2021/11/27 00:26:16;;;;;;;6.40;1.30;;;;;;;2.70;82.57;98499.53;5047660;28;20047;-67
2021/11/27 00:28:42;;;;;;;7.50;1.10;;;;;;;2.69;83.28;98505.66;5048069;28;20790;-68
2021/11/27 00:31:14;;;;;;;3.50;1.05;;;;;;;2.68;83.75;98505.72;5044414;28;20060;-67
2021/11/27 00:33:40;;;;;;;10.32;1.17;;;;;;;2.71;83.33;98497.78;5047192;28;20052;-67
2021/11/27 00:36:05;;;;;;;1.90;0.88;;;;;;;2.74;82.96;98492.47;5046332;28;20047;-68
2021/11/27 00:38:31;;;;;;;4.47;0.85;;;;;;;2.84;82.03;98495.53;5045515;28;20021;-68
2021/11/27 00:40:57;;;;;;;3.55;1.00;;;;;;;2.79;82.38;98490.53;5046664;28;20033;-68
2021/11/27 00:43:23;;;;;;;1.13;0.50;;;;;;;2.84;82.12;98492.94;5047103;28;20485;-67
2021/11/27 00:45:49;;;;;;;1.58;0.80;;;;;;;2.83;81.78;98489.47;5045734;28;20032;-69
2021/11/27 00:48:15;;;;;;;6.72;0.88;;;;;;;2.84;81.33;98501.59;5047084;28;20025;-68
2021/11/27 00:50:49;;;;;;;2.60;0.85;;;;;;;2.86;81.18;98493.75;5046921;28;20074;-69
2021/11/27 00:53:14;;;;;;;3.33;0.95;;;;;;;2.90;81.03;98492.69;5046446;28;20037;-68
2021/11/27 00:55:40;;;;;;;5.72;0.95;;;;;;;2.91;80.81;98497.00;5047153;28;20091;-68
2021/11/27 00:58:07;;;;;;;6.93;1.10;;;;;;;2.90;80.41;98496.16;5045385;28;20021;-70
2021/11/27 01:00:40;;;;;;;3.65;1.02;;;;;;;2.90;80.08;98495.31;5045434;28;20135;-69
2021/11/27 01:03:07;;;;;;;3.13;1.10;;;;;;;2.80;80.48;98497.41;5046006;28;20441;-68
2021/11/27 01:05:34;;;;;;;5.03;1.33;;;;;;;2.73;80.38;98499.41;5045623;28;20156;-70
2021/11/27 01:07:59;;;;;;;3.42;0.90;;;;;;;2.73;80.81;98493.34;5045701;28;20056;-68
2021/11/27 01:10:28;;;;;;;3.85;0.73;;;;;;;2.67;80.83;98496.22;5046483;28;20418;-68
2021/11/27 01:12:54;;;;;;;3.97;1.10;;;;;;;2.66;81.15;98497.97;5045430;28;20072;-69
2021/11/27 01:15:23;;;;;;;4.30;1.10;;;;;;;2.66;80.94;98492.75;5045140;28;20075;-68
2021/11/27 01:17:50;;;;;;;3.08;0.73;;;;;;;2.65;80.54;98493.69;5043934;28;20037;-68
2021/11/27 01:20:20;;;;;;;3.30;0.80;;;;;;;2.67;80.41;98491.84;5045684;28;20029;-70
2021/11/27 01:22:45;;;;;;;1.08;0.50;;;;;;;2.69;80.83;98484.84;5043292;28;20051;-68
2021/11/27 01:25:11;;;;;;;4.70;1.17;;;;;;;2.69;80.52;98497.84;5045765;28;20412;-68
2021/11/27 01:27:36;;;;;;;1.10;0.63;;;;;;;2.73;81.06;98489.00;5045536;28;20048;-68
2021/11/27 01:30:05;;;;;;;4.10;0.63;;;;;;;2.75;81.42;98481.16;5045284;28;20017;-68
2021/11/27 01:32:30;;;;;;;6.07;0.88;;;;;;;2.68;80.96;98485.72;5045300;28;20028;-69
2021/11/27 01:34:56;;;;;;;1.92;0.60;;;;;;;2.65;80.47;98491.09;5046179;28;20502;-70
2021/11/27 01:37:21;;;;;;;5.28;0.77;;;;;;;2.62;80.83;98486.81;5044119;28;20543;-67
2021/11/27 01:39:46;;;;;;;3.97;1.20;;;;;;;2.64;81.07;98484.16;5044914;28;20079;-67
2021/11/27 01:42:12;;;;;;;3.85;1.15;;;;;;;2.63;81.09;98485.94;5045957;28;20036;-67
2021/11/27 01:44:38;;;;;;;1.75;0.63;;;;;;;2.63;80.99;98482.47;5045198;28;20036;-68
2021/11/27 01:47:04;;;;;;;2.63;0.73;;;;;;;2.59;81.14;98481.75;5045161;28;20025;-68
2021/11/27 01:49:30;;;;;;;2.65;0.57;;;;;;;2.60;80.89;98488.66;5045573;28;20032;-69
2021/11/27 01:51:55;;;;;;;2.42;0.47;;;;;;;2.58;80.77;98489.59;5045158;28;20036;-70
2021/11/27 01:54:21;;;;;;;0.73;0.50;;;;;;;2.57;80.52;98485.31;5045205;28;20040;-68
2021/11/27 01:56:55;;;;;;;5.63;1.05;;;;;;;2.56;81.28;98491.44;5045260;28;20120;-69
2021/11/27 01:59:21;;;;;;;6.28;0.90;;;;;;;2.56;80.83;98494.03;5029901;28;20068;-69
2021/11/27 02:01:47;;;;;;;1.40;0.90;;;;;;;2.51;81.25;98492.47;5025055;28;20025;-71
2021/11/27 02:04:13;;;;;;;5.68;0.70;;;;;;;2.51;81.16;98489.88;5036747;28;20043;-69
2021/11/27 02:06:41;;;;;;;2.25;0.82;;;;;;;2.51;81.15;98495.06;5045098;28;20068;-70
2021/11/27 02:09:12;;;;;;;2.08;0.50;;;;;;;2.50;80.75;98493.34;5044579;28;20459;-70
2021/11/27 02:11:38;;;;;;;3.47;0.68;;;;;;;2.50;80.67;98498.53;5091571;22;20062;-59
2021/11/27 02:14:05;;;;;;;2.80;0.60;;;;;;;2.49;81.06;98502.06;5083471;28;20027;-59
2021/11/27 02:16:31;;;;;;;1.90;0.70;;;;;;;2.52;80.89;98501.09;5084563;28;20106;-60
2021/11/27 02:18:56;;;;;;;5.28;0.80;;;;;;;2.50;81.01;98497.72;5082257;28;20067;-59
2021/11/27 02:21:23;;;;;;;1.73;0.60;;;;;;;2.53;81.43;98501.03;5085005;28;20054;-59
2021/11/27 02:23:50;;;;;;;1.60;1.15;;;;;;;2.55;81.11;98497.50;5083349;28;20019;-59
2021/11/27 02:26:18;;;;;;;2.67;0.80;;;;;;;2.53;81.41;98498.44;5084332;28;20016;-59
2021/11/27 02:28:47;;;;;;;2.50;0.60;;;;;;;2.55;81.70;98492.31;5084572;28;20020;-59
2021/11/27 02:31:13;;;;;;;3.35;0.57;;;;;;;2.58;80.88;98500.84;5080221;28;20102;-60
2021/11/27 02:33:38;;;;;;;1.63;0.65;;;;;;;2.59;81.17;98499.13;5085501;28;20103;-61
2021/11/27 02:36:04;;;;;;;4.53;0.55;;;;;;;2.57;81.07;98499.19;5083759;28;20098;-60
2021/11/27 02:38:30;;;;;;;4.35;0.63;;;;;;;2.55;81.16;98494.91;5083887;28;20049;-60
2021/11/27 02:40:55;;;;;;;6.22;0.70;;;;;;;2.52;81.30;98503.69;5081347;28;20028;-59
2021/11/27 02:43:21;;;;;;;1.85;0.60;;;;;;;2.53;81.49;98519.22;5083779;28;20028;-60
2021/11/27 02:45:46;;;;;;;2.22;0.57;;;;;;;2.65;81.08;98520.50;5067352;28;20466;-59
2021/11/27 02:48:12;;;;;;;5.38;0.60;;;;;;;2.68;81.08;98524.75;5064526;28;20024;-60
2021/11/27 02:50:37;;;;;;;4.57;0.95;;;;;;;2.63;81.36;98521.50;5074573;28;20339;-60
2021/11/27 02:53:02;;;;;;;1.67;1.13;;;;;;;2.60;82.06;98521.59;5081435;28;20059;-59
2021/11/27 02:55:28;;;;;;;1.88;0.73;;;;;;;2.70;81.61;98520.34;5082034;28;20100;-59
2021/11/27 02:57:53;;;;;;;3.35;0.85;;;;;;;2.65;81.66;98533.50;5083178;28;20055;-59
2021/11/27 03:00:21;;;;;;;0.73;0.60;;;;;;;2.62;82.00;98530.19;5078267;28;20107;-58
2021/11/27 03:02:47;;;;;;;5.60;0.90;;;;;;;2.64;81.01;98537.03;5084743;28;20171;-60
2021/11/27 03:05:13;;;;;;;2.70;0.55;;;;;;;2.61;81.31;98528.47;5082832;28;20016;-59
2021/11/27 03:07:39;;;;;;;1.08;0.50;;;;;;;2.60;80.82;98525.06;5082867;28;20031;-58
2021/11/27 03:10:07;;;;;;;2.05;0.70;;;;;;;2.59;80.54;98532.91;5083346;28;20122;-59
2021/11/27 03:12:32;;;;;;;3.40;0.90;;;;;;;2.70;80.92;98530.75;5083098;28;20557;-60
2021/11/27 03:14:58;;;;;;;2.42;0.70;;;;;;;2.59;82.26;98532.91;5081340;28;20168;-60
2021/11/27 03:17:24;;;;;;;2.35;0.93;;;;;;;2.50;82.88;98529.75;5081345;28;20016;-60
2021/11/27 03:19:49;;;;;;;1.58;0.70;;;;;;;2.49;82.70;98529.81;5081810;28;20025;-60
2021/11/27 03:22:16;;;;;;;2.22;0.60;;;;;;;2.45;82.93;98536.03;5081698;28;20383;-59
2021/11/27 03:24:41;;;;;;;3.13;0.80;;;;;;;2.39;83.49;98534.50;5084183;28;20125;-60
2021/11/27 03:27:07;;;;;;;2.40;0.98;;;;;;;2.36;83.69;98538.09;5082391;28;20445;-61
2021/11/27 03:29:33;;;;;;;2.83;0.95;;;;;;;2.36;83.41;98550.22;5081619;28;20485;-59
2021/11/27 03:32:03;;;;;;;2.13;0.77;;;;;;;2.34;83.97;98552.00;5080421;28;20043;-62
2021/11/27 03:34:28;;;;;;;2.03;0.63;;;;;;;2.35;83.81;98546.75;5083416;28;20073;-59
2021/11/27 03:36:54;;;;;;;1.65;0.93;;;;;;;2.35;83.69;98556.31;5082964;28;20057;-59
2021/11/27 03:39:19;;;;;;;3.20;1.25;;;;;;;2.35;83.96;98561.53;5083546;28;20499;-60
2021/11/27 03:41:44;;;;;;;2.78;0.90;;;;;;;2.36;83.52;98563.22;5079961;28;20404;-59
2021/11/27 03:44:10;;;;;;;2.05;0.80;;;;;;;2.38;83.24;98561.41;5083300;28;20047;-60
2021/11/27 03:46:35;;;;;;;1.80;0.88;;;;;;;2.42;83.08;98568.19;5082889;28;20523;-59
2021/11/27 03:49:01;;;;;;;2.70;0.70;;;;;;;2.49;82.61;98569.66;5083164;28;20042;-59
2021/11/27 03:51:26;;;;;;;1.48;0.70;;;;;;;2.50;82.35;98570.50;5082079;28;20024;-59
2021/11/27 03:53:52;;;;;;;3.88;1.08;;;;;;;2.50;82.31;98573.94;5082235;28;20716;-59
2021/11/27 03:56:26;;;;;;;3.28;0.98;;;;;;;2.52;82.73;98581.69;5082427;28;20019;-60
2021/11/27 03:58:53;;;;;;;2.35;0.90;;;;;;;2.52;82.62;98579.94;5083756;28;20038;-60
2021/11/27 04:01:20;;;;;;;4.55;1.20;;;;;;;2.49;82.74;98579.19;5081930;28;20024;-60
2021/11/27 04:03:47;;;;;;;7.68;1.55;;;;;;;2.45;83.24;98577.63;5081445;28;20236;-60
2021/11/27 04:06:12;;;;;;;4.50;1.17;;;;;;;2.44;83.63;98578.53;5083376;28;20012;-59
2021/11/27 04:08:38;;;;;;;5.82;1.52;;;;;;;2.42;83.95;98576.00;5083467;28;20550;-60
2021/11/27 04:11:03;;;;;;;6.57;1.80;;;;;;;2.40;83.99;98583.84;5082678;28;21093;-60
2021/11/27 04:13:29;;;;;;;4.50;1.67;;;;;;;2.36;84.27;98584.00;5081997;28;20039;-60
2021/11/27 04:15:55;;;;;;;5.88;2.10;;;;;;;2.35;84.67;98590.13;5080832;28;20024;-60
2021/11/27 04:18:20;;;;;;;3.53;2.28;;;;;;;2.32;84.72;98588.47;5081040;28;20040;-60
2021/11/27 04:20:46;;;;;;;7.07;2.65;;;;;;;2.33;85.15;98599.72;5083014;28;20068;-60
2021/11/27 04:23:13;;;;;;;5.95;2.22;;;;;;;2.32;85.01;98598.03;5081149;28;20093;-60
2021/11/27 04:25:38;;;;;;;7.45;2.10;;;;;;;2.32;85.20;98598.03;5083008;28;20024;-60
2021/11/27 04:28:04;;;;;;;9.25;2.80;;;;;;;2.32;85.39;98605.81;5080242;28;20043;-60
2021/11/27 04:30:31;;;;;;;3.88;2.20;;;;;;;2.34;85.74;98610.06;5062863;28;20028;-60
2021/11/27 04:32:57;;;;;;;8.52;2.17;;;;;;;2.36;85.46;98610.00;5061534;28;20025;-60
2021/11/27 04:35:23;;;;;;;5.85;2.80;;;;;;;2.37;85.45;98611.69;5079333;28;20031;-60
2021/11/27 04:37:49;;;;;;;4.03;2.47;;;;;;;2.39;85.29;98615.94;5082014;28;20500;-60
2021/11/27 04:40:15;;;;;;;10.07;2.40;;;;;;;2.40;85.42;98620.22;5082217;28;20028;-60
2021/11/27 04:42:41;;;;;;;8.75;2.40;;;;;;;2.42;84.95;98620.19;5086826;28;20649;-60
2021/11/27 04:45:07;;;;;;;2.70;1.90;;;;;;;2.44;85.20;98622.72;5074565;28;20019;-60
2021/11/27 04:47:33;;;;;;;8.30;3.03;;;;;;;2.47;85.02;98633.84;5064745;28;20052;-64
2021/11/27 04:49:59;;;;;;;5.13;2.60;;;;;;;2.50;84.90;98633.72;5065593;28;20582;-60
2021/11/27 04:52:24;;;;;;;9.05;3.25;;;;;;;2.52;85.00;98638.88;5063994;28;20054;-61
2021/11/27 04:54:51;;;;;;;5.68;2.55;;;;;;;2.53;84.72;98644.03;5064736;28;20090;-61
2021/11/27 04:57:16;;;;;;;4.75;2.63;;;;;;;2.56;84.78;98642.22;5064661;28;20035;-61
2021/11/27 04:59:42;;;;;;;5.30;3.05;;;;;;;2.57;84.99;98654.31;5064609;28;20032;-61
2021/11/27 05:02:07;;;;;;;4.28;2.17;;;;;;;2.58;85.07;98656.00;5082032;28;20028;-62
2021/11/27 05:04:32;;;;;;;4.38;2.60;;;;;;;2.57;85.13;98660.38;5085136;28;20073;-61
2021/11/27 05:06:58;;;;;;;3.92;2.10;;;;;;;2.57;85.00;98656.91;5077368;28;20052;-60
2021/11/27 05:09:23;;;;;;;7.95;2.53;;;;;;;2.56;84.93;98660.44;5066504;28;20069;-59
2021/11/27 05:11:49;;;;;;;3.58;2.45;;;;;;;2.52;84.92;98660.53;5073881;28;20340;-59
2021/11/27 05:14:14;;;;;;;6.22;2.58;;;;;;;2.54;84.89;98665.69;5085228;28;20031;-60
2021/11/27 05:16:40;;;;;;;8.52;3.10;;;;;;;2.56;84.83;98668.22;5078850;28;20123;-59
2021/11/27 05:19:06;;;;;;;5.13;2.33;;;;;;;2.58;84.84;98666.41;5082584;28;20471;-59
2021/11/27 05:21:31;;;;;;;7.20;3.10;;;;;;;2.57;84.86;98672.53;5087109;28;20051;-59
2021/11/27 05:23:57;;;;;;;9.05;3.42;;;;;;;2.53;85.25;98675.22;5083301;28;20118;-60
2021/11/27 05:26:22;;;;;;;5.93;3.13;;;;;;;2.55;85.10;98666.50;5085496;28;20035;-60
2021/11/27 05:28:49;;;;;;;8.85;5.28;;;;;;;2.55;84.33;98671.72;5085533;28;20032;-61
2021/11/27 05:31:16;;;;;;;11.27;5.70;;;;;;;2.56;83.98;98676.84;5084848;28;20020;-60
2021/11/27 05:36:14;;;;;;;8.55;5.15;;;;;;;2.62;84.33;98686.22;5087210;28;20385;-59
2021/11/27 05:38:39;;;;;;;9.32;5.50;;;;;;;2.60;84.57;98695.81;5085115;28;20035;-61
2021/11/27 05:41:06;;;;;;;10.63;4.78;;;;;;;2.65;84.55;98699.13;5085029;28;20020;-59
2021/11/27 05:43:32;;;;;;;11.25;7.15;;;;;;;2.67;84.65;98702.50;5085937;28;20031;-59
2021/11/27 05:45:58;;;;;;;11.15;6.68;;;;;;;2.69;84.38;98700.69;5085691;28;20024;-60
2021/11/27 05:48:23;;;;;;;9.60;4.80;;;;;;;2.69;84.26;98710.25;5083140;28;20587;-60
2021/11/27 05:50:48;;;;;;;14.23;6.35;;;;;;;2.70;84.51;98704.97;5085844;28;20218;-60
2021/11/27 05:53:17;;;;;;;10.68;6.50;;;;;;;2.76;84.42;98709.97;5085070;28;20036;-61
2021/11/27 05:55:46;;;;;;;12.60;8.70;;;;;;;2.77;84.22;98719.47;5085846;28;20024;-61
2021/11/27 05:58:11;;;;;;;16.33;7.88;;;;;;;2.77;84.44;98732.47;5077380;28;20043;-61
2021/11/27 06:00:36;;;;;;;15.25;7.70;;;;;;;2.83;84.29;98728.78;5080805;28;20051;-61
2021/11/27 06:03:02;;;;;;;15.85;9.55;;;;;;;2.82;84.34;98726.25;5084683;28;20028;-61
2021/11/27 06:05:29;;;;;;;15.73;8.68;;;;;;;2.77;84.65;98727.25;5085078;28;20920;-62
2021/11/27 06:07:55;;;;;;;13.38;8.45;;;;;;;2.74;85.22;98735.16;5086298;28;20028;-62
2021/11/27 06:10:20;;;;;;;14.95;9.52;;;;;;;2.73;84.90;98743.03;5084723;28;20105;-61
2021/11/27 06:12:45;;;;;;;13.30;9.35;;;;;;;2.71;85.37;98740.47;5084026;28;20035;-64
2021/11/27 06:15:10;;;;;;;20.77;11.50;;;;;;;2.70;85.43;98738.78;5086184;28;20024;-60
2021/11/27 06:17:36;;;;;;;17.05;11.05;;;;;;;2.68;85.12;98737.97;5082712;28;20024;-62
2021/11/27 06:20:02;;;;;;;10.95;7.30;;;;;;;2.74;84.96;98755.16;5084568;28;20024;-61
2021/11/27 06:22:27;;;;;;;17.73;11.30;;;;;;;2.75;84.94;98757.69;5083673;28;20055;-60
2021/11/27 06:24:53;;;;;;;18.88;10.05;;;;;;;2.76;85.20;98763.72;5084988;28;20074;-61
2021/11/27 06:27:18;;;;;;;13.90;8.02;;;;;;;2.73;85.22;98769.91;5084405;28;20525;-60
2021/11/27 06:29:43;;;;;;;16.50;10.35;;;;;;;2.73;85.44;98769.03;5084437;28;20466;-61
2021/11/27 06:32:09;;;;;;;11.18;7.85;;;;;;;2.74;85.41;98770.75;5076581;28;20116;-60
2021/11/27 06:34:35;;;;;;;15.32;8.38;;;;;;;2.73;85.34;98769.91;5066257;28;20051;-60
2021/11/27 06:37:00;;;;;;;11.60;6.57;;;;;;;2.74;85.25;98776.78;5067560;28;20710;-61
2021/11/27 06:39:26;;;;;;;11.75;6.70;;;;;;;2.75;85.02;98777.66;5084663;28;20021;-62
2021/11/27 06:41:51;;;;;;;12.00;8.32;;;;;;;2.73;85.39;98790.69;5083012;28;20049;-62
2021/11/27 06:44:16;;;;;;;13.43;8.23;;;;;;;2.70;85.53;98790.81;5084209;28;20103;-62
2021/11/27 06:46:42;;;;;;;15.00;9.77;;;;;;;2.68;85.53;98795.19;5084715;28;20526;-60
2021/11/27 06:49:07;;;;;;;17.27;9.80;;;;;;;2.67;85.74;98798.72;5063853;28;20028;-60
2021/11/27 06:51:33;;;;;;;24.35;10.85;;;;;;;2.68;85.89;98807.38;5064112;28;20029;-60
2021/11/27 06:53:58;;;;;;;15.60;8.75;;;;;;;2.67;85.71;98810.88;5073648;28;20029;-59
2021/11/27 06:56:23;;;;;;;13.20;9.85;;;;;;;2.67;85.81;98816.91;5064865;28;20630;-60
2021/11/27 06:58:49;;;;;;;19.73;10.70;;;;;;;2.68;86.01;98820.38;5063524;28;20143;-61
2021/11/27 07:01:14;;;;;;;18.30;10.95;;;;;;;2.69;85.84;98824.66;5065286;28;20396;-60
2021/11/27 07:03:39;;;;;;;16.08;9.68;;;;;;;2.71;85.65;98822.88;5075319;28;20028;-58
2021/11/27 07:06:05;;;;;;;21.30;12.20;;;;;;;2.72;86.03;98830.63;5073120;28;20026;-60
2021/11/27 07:08:30;;;;;;;14.63;10.02;;;;;;;2.73;85.98;98827.13;5057383;28;20024;-59
2021/11/27 07:10:55;;;;;;;18.88;12.15;;;;;;;2.76;85.70;98832.22;5078467;28;20063;-59
2021/11/27 07:13:21;;;;;;;21.73;12.23;;;;;;;2.78;85.45;98834.75;5081519;28;20031;-62
2021/11/27 07:15:47;;;;;;;22.00;12.13;;;;;;;2.83;85.10;98842.41;5083389;28;20064;-61
2021/11/27 07:18:13;;;;;;;15.30;9.50;;;;;;;2.78;85.00;98840.81;5080688;28;20020;-61
2021/11/27 07:20:38;;;;;;;32.80;17.38;;;;;;;2.74;85.34;98844.41;5085216;28;20399;-60
2021/11/27 07:23:03;;;;;;;19.45;11.60;;;;;;;2.74;85.77;98844.41;5081618;28;20028;-60
2021/11/27 07:25:30;;;;;;;24.90;15.25;;;;;;;2.74;85.60;98844.41;5078742;28;20033;-59
2021/11/27 07:27:56;;;;;;;29.00;17.85;;;;;;;2.73;85.68;98842.72;5073450;28;20032;-62
2021/11/27 07:30:21;;;;;;;23.33;16.15;;;;;;;2.71;85.64;98849.72;5081376;28;20710;-59
2021/11/27 07:32:47;;;;;;;27.67;17.63;;;;;;;2.72;85.28;98854.03;5075376;28;20036;-60
2021/11/27 07:35:12;;;;;;;26.45;17.98;;;;;;;2.69;85.14;98855.88;5064272;28;20108;-63
2021/11/27 07:37:37;;;;;;;34.78;19.00;;;;;;;2.67;85.35;98865.50;5073509;28;20119;-61
2021/11/27 07:40:03;;;;;;;33.42;19.05;;;;;;;2.63;85.55;98872.53;5074402;28;20474;-60
2021/11/27 07:42:28;;;;;;;34.22;17.27;;;;;;;2.65;85.74;98876.78;5074296;28;20510;-61
2021/11/27 07:44:54;;;;;;;24.08;13.38;;;;;;;2.65;85.75;98887.19;5073333;28;20043;-60
2021/11/27 07:47:19;;;;;;;31.20;17.85;;;;;;;2.66;85.25;98888.03;5082831;28;20066;-57
2021/11/27 07:49:44;;;;;;;29.58;13.55;;;;;;;2.71;85.38;98888.72;5083799;28;20122;-60
2021/11/27 07:52:10;;;;;;;46.42;19.27;;;;;;;2.71;85.11;98893.94;5083381;28;20103;-58
2021/11/27 07:54:35;;;;;;;28.75;13.30;;;;;;;2.78;85.22;98905.84;5071117;28;20811;-58
2021/11/27 07:57:01;;;;;;;34.53;17.70;;;;;;;2.78;84.75;98907.59;5063638;28;20458;-57
2021/11/27 07:59:29;;;;;;;25.05;13.70;;;;;;;2.86;84.60;98921.19;5072284;28;20104;-60
2021/11/27 08:01:54;;;;;;;24.38;12.20;;;;;;;2.91;84.72;98926.25;5083578;28;20492;-58
2021/11/27 08:04:20;;;;;;;26.73;14.05;;;;;;;2.88;84.58;98934.16;5075087;28;20025;-57
2021/11/27 08:06:45;;;;;;;30.25;15.98;;;;;;;2.88;84.53;98928.94;5063616;28;20025;-56
2021/11/27 08:09:11;;;;;;;33.22;18.98;;;;;;;2.78;84.10;98931.88;5063708;28;20023;-57
2021/11/27 08:11:36;;;;;;;36.00;19.20;;;;;;;2.76;84.52;98923.25;5063143;28;20559;-58
2021/11/27 08:14:02;;;;;;;34.40;18.67;;;;;;;2.74;84.95;98938.03;5065459;28;20039;-57
2021/11/27 08:16:27;;;;;;;27.08;14.73;;;;;;;2.77;85.16;98943.16;5081764;28;20033;-59
2021/11/27 08:18:52;;;;;;;36.83;19.15;;;;;;;2.78;84.75;98947.47;5077187;28;20016;-58
2021/11/27 08:21:18;;;;;;;35.45;18.50;;;;;;;2.76;84.51;98938.84;5078536;28;20004;-58
2021/11/27 08:23:43;;;;;;;37.40;19.55;;;;;;;2.77;84.43;98944.91;5077646;28;20029;-57
2021/11/27 08:26:09;;;;;;;38.80;21.48;;;;;;;2.74;84.82;98945.84;5075489;28;20109;-56
2021/11/27 08:28:35;;;;;;;38.58;20.67;;;;;;;2.73;84.82;98946.75;5072697;28;20449;-58
2021/11/27 08:31:00;;;;;;;42.47;20.83;;;;;;;2.69;84.88;98954.69;5081338;28;20025;-58
2021/11/27 08:33:25;;;;;;;33.38;19.02;;;;;;;2.69;84.68;98955.56;5074852;28;20028;-58
2021/11/27 08:35:51;;;;;;;38.35;19.70;;;;;;;2.75;84.94;98964.91;5076520;28;20099;-55
2021/11/27 08:38:16;;;;;;;28.85;16.63;;;;;;;2.76;84.52;98966.59;5083549;28;20028;-57
2021/11/27 08:40:42;;;;;;;35.00;15.95;;;;;;;2.82;84.13;98970.75;5076817;28;20200;-56
2021/11/27 08:43:07;;;;;;;20.48;13.30;;;;;;;2.87;83.98;98971.47;5075969;28;20027;-59
2021/11/27 08:45:32;;;;;;;35.47;17.27;;;;;;;2.89;83.74;98980.09;5087339;28;20028;-57
2021/11/27 08:47:58;;;;;;;42.28;18.67;;;;;;;2.90;83.53;98984.38;5080480;28;20029;-60
2021/11/27 08:50:23;;;;;;;27.63;15.70;;;;;;;2.91;83.43;98988.69;5077825;28;20048;-60
2021/11/27 08:52:49;;;;;;;29.45;13.18;;;;;;;2.93;83.18;98983.44;5076126;28;20068;-60
2021/11/27 08:55:15;;;;;;;36.90;19.23;;;;;;;2.89;83.53;98993.94;5077211;28;20031;-61
2021/11/27 08:57:40;;;;;;;33.67;16.92;;;;;;;2.90;83.39;98995.66;5077031;28;20540;-60
2021/11/27 09:00:08;;;;;;;36.72;18.42;;;;;;;2.89;83.66;98990.50;5075398;28;20548;-60
2021/11/27 09:02:34;;;;;;;32.03;16.20;;;;;;;2.87;83.18;98990.56;5082398;28;20077;-59
2021/11/27 09:04:59;;;;;;;26.05;15.68;;;;;;;2.95;81.97;98987.69;5082528;28;20246;-59
2021/11/27 09:07:25;;;;;;;22.55;8.32;;;;;;;3.02;79.97;98996.16;5083917;28;20031;-58
2021/11/27 09:09:50;;;;;;;23.25;7.38;;;;;;;3.03;78.55;98996.09;5081235;28;20036;-59
2021/11/27 09:12:19;;;;;;;24.23;9.95;;;;;;;3.06;79.67;98983.88;5081160;28;20163;-60
2021/11/27 09:14:45;;;;;;;18.23;8.60;;;;;;;3.16;79.33;98985.28;5074097;28;20912;-55
2021/11/27 09:17:11;;;;;;;21.27;8.73;;;;;;;3.15;79.13;98994.84;5083060;28;20108;-58
2021/11/27 09:19:36;;;;;;;27.17;10.93;;;;;;;3.19;79.42;98990.38;5079842;28;20059;-58
2021/11/27 09:22:02;;;;;;;16.65;8.63;;;;;;;3.14;80.44;99002.72;5079323;28;20067;-60
2021/11/27 09:24:28;;;;;;;30.95;11.98;;;;;;;3.20;80.93;99010.31;5081448;28;20088;-60
2021/11/27 09:26:54;;;;;;;26.23;13.48;;;;;;;3.27;81.12;99010.94;5078476;28;20031;-59
2021/11/27 09:29:20;;;;;;;21.67;10.63;;;;;;;3.29;81.29;99012.59;5074942;28;20482;-59
2021/11/27 09:31:46;;;;;;;23.60;12.38;;;;;;;3.28;81.56;99016.09;5079842;28;20111;-59
2021/11/27 09:34:12;;;;;;;24.42;12.95;;;;;;;3.27;81.98;99019.63;5080325;28;20450;-59
2021/11/27 09:36:39;;;;;;;33.72;14.23;;;;;;;3.27;81.67;99017.03;5078776;28;20085;-59
2021/11/27 09:39:07;;;;;;;32.88;16.17;;;;;;;3.12;82.62;99030.53;5082799;28;20051;-59
2021/11/27 09:41:34;;;;;;;32.40;14.15;;;;;;;3.19;82.34;99021.59;5082421;28;20136;-58
2021/11/27 09:44:04;;;;;;;26.25;12.55;;;;;;;3.26;81.98;99017.06;5082264;28;20023;-58
2021/11/27 09:46:30;;;;;;;24.15;11.13;;;;;;;3.32;82.23;99016.88;5080728;28;20028;-58
2021/11/27 09:48:59;;;;;;;36.72;16.08;;;;;;;3.32;82.51;99027.28;5075306;28;20069;-59
2021/11/27 09:51:26;;;;;;;30.25;13.80;;;;;;;3.43;81.91;99023.47;5079971;28;20028;-60
2021/11/27 09:53:53;;;;;;;26.88;12.23;;;;;;;3.60;81.03;99031.56;5084228;28;20024;-55
2021/11/27 09:56:19;;;;;;;24.95;12.20;;;;;;;3.62;81.39;99015.88;5079064;28;20070;-59
2021/11/27 09:58:45;;;;;;;38.00;14.32;;;;;;;3.72;81.23;99026.81;5074428;28;20425;-59
2021/11/27 10:01:11;;;;;;;37.10;14.77;;;;;;;3.68;80.72;99039.13;5074685;28;20103;-57
2021/11/27 10:03:40;;;;;;;31.13;16.38;;;;;;;3.70;81.88;99034.69;5056384;28;20024;-55
2021/11/27 10:06:05;;;;;;;30.48;13.23;;;;;;;3.89;80.96;99031.44;5076121;28;20029;-57
2021/11/27 10:08:33;;;;;;;26.83;12.00;;;;;;;4.02;80.06;99032.72;5079261;28;20028;-56
2021/11/27 10:10:58;;;;;;;34.35;13.90;;;;;;;3.93;79.93;99027.81;5076229;28;20094;-57
2021/11/27 10:13:23;;;;;;;32.30;12.50;;;;;;;4.03;79.45;99017.91;5080551;28;20456;-56
2021/11/27 10:15:51;;;;;;;29.40;11.45;;;;;;;4.04;78.92;99015.25;5081655;28;20035;-56
2021/11/27 10:18:26;;;;;;;27.27;12.68;;;;;;;3.94;80.08;99008.66;5079138;28;20015;-57
2021/11/27 10:21:13;;;;;;;38.25;15.15;;;;;;;3.89;80.34;99010.59;5076047;28;20032;-58
2021/11/27 10:23:39;;;;;;;36.88;14.65;;;;;;;3.94;79.68;99016.47;5079971;28;20024;-58
2021/11/27 10:26:05;;;;;;;35.67;14.18;;;;;;;4.02;79.40;99013.59;5077185;28;20081;-59
2021/11/27 10:28:30;;;;;;;37.42;12.90;;;;;;;4.16;79.31;99013.94;5074874;28;20016;-57
2021/11/27 10:31:02;;;;;;;34.95;13.50;;;;;;;4.16;79.39;99006.13;5067478;28;20036;-58
2021/11/27 10:33:29;;;;;;;33.42;13.70;;;;;;;4.40;78.74;99006.13;5078861;28;20043;-59
2021/11/27 10:36:02;;;;;;;35.70;13.40;;;;;;;4.43;78.40;99013.00;5084476;28;20067;-59
2021/11/27 10:38:46;;;;;;;28.60;11.05;;;;;;;4.71;77.37;99003.22;5078553;28;20032;-58
2021/11/27 10:41:14;;;;;;;31.58;11.85;;;;;;;4.99;76.04;99005.59;5077709;28;20036;-58
2021/11/27 10:43:57;;;;;;;27.52;10.55;;;;;;;5.35;74.43;99003.28;5084622;28;20539;-54
2021/11/27 10:46:30;;;;;;;32.88;10.73;;;;;;;5.50;74.17;99007.88;5079603;28;20276;-59
2021/11/27 10:48:55;;;;;;;25.30;9.57;;;;;;;5.65;72.74;99010.75;5079901;28;20039;-57
2021/11/27 10:51:21;;;;;;;32.30;9.13;;;;;;;5.74;71.80;99019.94;5085189;28;20032;-60
2021/11/27 10:53:59;;;;;;;31.90;10.48;;;;;;;5.82;71.44;99016.09;5084205;28;20039;-59
2021/11/27 10:56:42;;;;;;;22.88;9.15;;;;;;;5.77;71.31;99017.22;5078890;28;20115;-57
2021/11/27 10:59:09;;;;;;;26.33;8.75;;;;;;;5.81;71.71;99017.00;5072471;28;20043;-58
2021/11/27 11:01:57;;;;;;;26.65;10.73;;;;;;;5.62;73.33;99018.72;5071521;28;20099;-59
2021/11/27 11:04:23;;;;;;;27.70;9.55;;;;;;;5.60;71.81;99013.56;5071002;28;20024;-60
2021/11/27 11:06:48;;;;;;;31.30;10.57;;;;;;;5.45;73.47;99017.69;5084965;28;20429;-56
2021/11/27 11:09:15;;;;;;;27.95;7.78;;;;;;;5.19;73.75;99024.84;5085407;28;20039;-60
2021/11/27 11:11:41;;;;;;;16.52;5.00;;;;;;;5.09;71.51;99018.28;5081478;28;20472;-60
2021/11/27 11:14:25;;;;;;;19.75;5.40;;;;;;;4.67;72.03;99026.00;5074112;28;20116;-54
2021/11/27 11:16:58;;;;;;;12.75;3.58;;;;;;;4.35;72.25;99021.09;5083283;28;20119;-57
2021/11/27 11:19:24;;;;;;;15.45;3.10;;;;;;;4.11;72.42;99022.84;5083827;28;20038;-55
2021/11/27 11:22:09;;;;;;;19.52;4.28;;;;;;;3.78;74.69;99018.78;5083055;28;20020;-57
2021/11/27 11:24:37;;;;;;;14.15;3.17;;;;;;;3.61;75.35;99019.41;5082197;28;20571;-60
2021/11/27 11:27:07;;;;;;;7.95;1.92;;;;;;;3.43;73.80;99021.69;5084469;28;20055;-59
2021/11/27 11:29:45;;;;;;;8.07;2.65;;;;;;;3.19;75.61;99028.59;5074779;28;20451;-60
2021/11/27 11:32:27;;;;;;;9.95;2.95;;;;;;;3.06;76.21;99020.31;5076818;28;20031;-54
2021/11/27 11:34:53;;;;;;;13.88;2.88;;;;;;;2.89;77.15;99019.94;5076853;28;20035;-57